Northfield, Wisconsin
Current Conditions -  °F | °C
As of 5:55 PM on Sunday 21 Dec 2014 (Local Time) from KBCK Reporting Station
Haze Haze  
Wind Chill: 32°   Ceiling: 900
Heat Index: 37°   Visibility: 3mi
Dew Point: 37°   Wind: 6mph
Humidity: 100%   Direction: 160°SSE
Pressure: 29.84"   Gusts: NA
Location:  44.4032°N, 91.0577°W
Report Text: KBCK 212355Z AUTO 16005KT 3SM BR OVC009 03/03 A2984 RMK AO2 T00270027 10030 20018
Loading
Personal Weather Stations






























Interactive Weather Map New forecast layout! Learn more

10-Day Weather Forecast

Advertisements
Track Severe Weather on mobile